Time;durP1;ratioP1;P1;durP2;ratioP2;P2;SDS_P1;SDS_P2;PMS_P1;PMS_P2;Temp;Humidity;BMP_temperature;BMP_pressure;BME280_temperature;BME280_humidity;BME280_pressure;Samples;Min_cycle;Max_cycle;Signal;HPM_P1;HPM_P2
2022/07/30 00:00:49;;;;;;;4.38;1.65;;;17.20;99.90;;;16.39;100.00;97749.47;4940635;28;20051;-65
2022/07/30 00:03:16;;;;;;;5.00;1.92;;;17.20;99.90;;;16.44;100.00;97742.97;4937032;28;20427;-65
2022/07/30 00:05:43;;;;;;;2.90;1.75;;;17.10;99.90;;;16.42;100.00;97742.25;4941492;28;20040;-65
2022/07/30 00:08:10;;;;;;;4.32;1.75;;;17.10;99.90;;;16.52;100.00;97737.25;4944066;28;20081;-65
2022/07/30 00:10:38;;;;;;;4.07;1.85;;;17.00;99.90;;;16.43;100.00;97728.22;4938397;28;20048;-65
2022/07/30 00:13:06;;;;;;;4.43;2.03;;;17.00;99.90;;;16.57;100.00;97735.19;4954533;28;20065;-65
2022/07/30 00:15:33;;;;;;;4.47;1.60;;;16.90;99.90;;;16.45;100.00;97726.34;4942642;28;20138;-65
2022/07/30 00:18:00;;;;;;;4.72;1.77;;;17.00;99.90;;;16.46;100.00;97724.56;4941436;28;20484;-65
2022/07/30 00:20:28;;;;;;;4.20;1.75;;;16.90;99.90;;;16.14;100.00;97730.06;4963093;28;20698;-65
2022/07/30 00:22:55;;;;;;;5.38;1.80;;;16.90;99.90;;;16.33;100.00;97723.66;4937280;28;20091;-65
2022/07/30 00:25:22;;;;;;;4.32;1.85;;;16.80;99.90;;;16.32;100.00;97728.06;4941933;28;20423;-65
2022/07/30 00:27:49;;;;;;;2.75;1.55;;;16.80;99.90;;;16.39;100.00;97724.09;4940318;28;20538;-65
2022/07/30 00:30:16;;;;;;;5.15;2.08;;;16.90;99.90;;;16.28;100.00;97722.19;4937990;28;20778;-65
2022/07/30 00:32:43;;;;;;;8.00;1.98;;;16.80;99.90;;;16.04;100.00;97731.56;4939667;28;20052;-65
2022/07/30 00:35:10;;;;;;;3.40;1.70;;;16.70;99.90;;;16.15;100.00;97729.13;4941425;28;20055;-65
2022/07/30 00:37:37;;;;;;;5.18;2.13;;;16.70;99.90;;;16.09;100.00;97721.66;4937416;28;20055;-65
2022/07/30 00:40:07;;;;;;;3.20;1.50;;;16.60;99.90;;;15.87;100.00;97732.59;4953231;28;20097;-65
2022/07/30 00:42:44;;;;;;;5.18;2.30;;;16.60;99.90;;;15.83;100.00;97736.38;4944218;28;20150;-65
2022/07/30 00:45:13;;;;;;;4.03;1.90;;;;;;;15.62;100.00;97733.22;4944716;28;20174;-65
2022/07/30 00:47:41;;;;;;;5.72;1.95;;;16.40;99.90;;;15.51;100.00;97735.66;4941233;28;20055;-65
2022/07/30 00:50:10;;;;;;;4.72;2.00;;;16.40;99.90;;;15.51;100.00;97740.88;4943055;28;20055;-65
2022/07/30 00:52:39;;;;;;;6.70;2.03;;;16.40;99.90;;;15.48;100.00;97740.13;4957978;28;20064;-65
2022/07/30 00:55:10;;;;;;;4.63;2.00;;;16.30;99.90;;;15.58;100.00;97732.59;4942434;28;20227;-65
2022/07/30 00:57:37;;;;;;;4.55;2.00;;;16.20;99.90;;;15.58;100.00;97735.19;4938707;28;20047;-65
2022/07/30 01:00:10;;;;;;;6.55;2.17;;;16.20;99.90;;;15.45;100.00;97739.47;4956810;28;20055;-65
2022/07/30 01:02:37;;;;;;;3.95;1.88;;;16.10;99.90;;;15.20;100.00;97750.56;4942379;28;20043;-65
2022/07/30 01:05:05;;;;;;;6.40;2.10;;;16.10;99.90;;;15.28;100.00;97745.72;4942528;28;20047;-65
2022/07/30 01:07:32;;;;;;;4.47;2.13;;;16.00;99.90;;;15.20;100.00;97742.72;4943793;29;20043;-65
2022/07/30 01:09:59;;;;;;;5.72;2.35;;;15.90;99.90;;;15.26;100.00;97750.19;4957016;28;20052;-65
2022/07/30 01:12:27;;;;;;;5.22;2.10;;;15.90;99.90;;;14.95;100.00;97749.34;4941986;28;20049;-65
2022/07/30 01:14:57;;;;;;;5.85;2.53;;;15.80;99.90;;;14.91;100.00;97752.22;4941470;28;20051;-65
2022/07/30 01:17:24;;;;;;;4.90;1.90;;;15.80;99.90;;;14.93;100.00;97750.38;4957736;28;20043;-65
2022/07/30 01:19:58;;;;;;;6.57;2.20;;;15.70;99.90;;;14.92;100.00;97759.16;4942734;29;20090;-65
2022/07/30 01:22:25;;;;;;;8.23;2.30;;;15.60;99.90;;;14.94;100.00;97758.13;4960851;28;20054;-65
2022/07/30 01:25:57;;;;;;;4.28;1.98;;;15.60;99.90;;;14.95;100.00;97767.66;4942077;29;20440;-65
2022/07/30 01:28:30;;;;;;;4.68;2.38;;;15.60;99.90;;;14.96;100.00;97769.34;4931557;28;20139;-65
2022/07/30 01:30:59;;;;;;;5.32;2.65;;;15.60;99.90;;;14.87;100.00;97772.50;4958170;28;20039;-66
2022/07/30 01:33:27;;;;;;;8.50;2.75;;;15.60;99.90;;;14.87;100.00;97771.63;4943108;28;20512;-65
2022/07/30 01:35:56;;;;;;;4.18;2.33;;;15.60;99.90;;;15.00;100.00;97768.22;4941343;28;20141;-65
2022/07/30 01:38:24;;;;;;;3.10;2.03;;;15.60;99.90;;;14.89;100.00;97769.78;4957899;28;20047;-65
2022/07/30 01:40:54;;;;;;;7.25;2.20;;;15.50;99.90;;;14.91;100.00;97770.53;4957000;28;20130;-65
2022/07/30 01:43:23;;;;;;;3.83;1.70;;;15.50;99.90;;;14.59;100.00;97768.78;4955703;28;20043;-65
2022/07/30 01:45:52;;;;;;;5.38;2.80;;;15.50;99.90;;;14.68;100.00;97772.66;4954986;28;20130;-65
2022/07/30 01:48:23;;;;;;;8.65;3.28;;;15.40;99.90;;;14.59;100.00;97776.63;4955411;28;20102;-65
2022/07/30 01:50:54;;;;;;;8.88;2.80;;;15.40;99.90;;;14.60;100.00;97775.72;4958333;28;20079;-65
2022/07/30 01:53:28;;;;;;;4.57;2.25;;;15.40;99.90;;;14.69;100.00;97779.59;4937117;28;20142;-65
2022/07/30 01:55:57;;;;;;;4.13;2.42;;;15.30;99.90;;;14.79;100.00;97778.13;4952581;28;20047;-65
2022/07/30 01:58:30;;;;;;;4.95;2.20;;;15.30;99.90;;;14.60;100.00;97780.09;4957192;28;20597;-65
2022/07/30 02:00:57;;;;;;;3.58;2.20;;;15.30;99.90;;;14.63;100.00;97778.16;4940526;28;20055;-65
2022/07/30 02:03:26;;;;;;;4.90;2.03;;;15.20;99.90;;;14.56;100.00;97789.03;4943959;28;20687;-65
2022/07/30 02:06:07;;;;;;;7.63;2.85;;;15.30;99.90;;;14.52;100.00;97777.88;4925512;29;20067;-65
2022/07/30 02:08:40;;;;;;;7.60;2.42;;;15.20;99.90;;;14.33;100.00;97790.28;4959187;28;20055;-65
2022/07/30 02:11:15;;;;;;;5.15;2.45;;;15.20;99.90;;;14.36;100.00;97788.31;4940963;28;20048;-65
2022/07/30 02:13:52;;;;;;;5.20;2.03;;;15.10;99.90;;;14.60;100.00;97786.16;4938400;28;20073;-65
2022/07/30 02:16:30;;;;;;;4.70;2.03;;;15.10;99.90;;;14.68;100.00;97777.91;4956717;28;20162;-65
2022/07/30 02:19:15;;;;;;;4.05;1.95;;;15.10;99.90;;;14.56;100.00;97775.97;4956884;28;20094;-65
2022/07/30 02:21:47;;;;;;;5.32;2.38;;;15.10;99.90;;;14.58;100.00;97774.97;4958086;28;20055;-65
2022/07/30 02:24:24;;;;;;;3.58;2.30;;;15.10;99.90;;;14.66;100.00;97765.84;4937874;28;20066;-65
2022/07/30 02:27:00;;;;;;;4.10;2.88;;;15.10;99.90;;;14.62;100.00;97771.25;4939440;28;20427;-65
2022/07/30 02:29:32;;;;;;;5.28;2.10;;;15.10;99.90;;;14.55;100.00;97772.53;4954098;28;20071;-65
2022/07/30 02:32:04;;;;;;;7.15;1.95;;;15.00;99.90;;;14.47;100.00;97777.28;4953383;28;20142;-65
2022/07/30 02:34:35;;;;;;;5.25;2.45;;;14.90;99.90;;;14.33;100.00;97788.50;4957583;28;20047;-65
2022/07/30 02:37:05;;;;;;;6.32;2.10;;;15.00;99.90;;;14.38;100.00;97793.47;4952159;28;20062;-65
2022/07/30 02:39:34;;;;;;;3.53;2.20;;;14.90;99.90;;;14.31;100.00;97797.34;4956094;28;20142;-65
2022/07/30 02:42:03;;;;;;;5.10;2.70;;;14.90;99.90;;;14.23;100.00;97800.34;4939596;28;20127;-65
2022/07/30 02:44:31;;;;;;;4.07;1.92;;;14.90;99.90;;;14.30;100.00;97790.41;4955027;28;20047;-65
2022/07/30 02:46:59;;;;;;;3.05;1.80;;;14.80;99.90;;;14.24;100.00;97796.81;4958126;28;20051;-65
2022/07/30 02:49:34;;;;;;;4.13;1.88;;;14.80;99.90;;;14.21;100.00;97784.78;4940982;29;20070;-65
2022/07/30 02:52:02;;;;;;;3.78;2.42;;;14.80;99.90;;;13.99;100.00;97790.28;4939743;28;20134;-65
2022/07/30 02:54:31;;;;;;;5.40;2.17;;;14.80;99.90;;;14.13;100.00;97794.78;4940247;28;20571;-64
2022/07/30 02:57:00;;;;;;;3.35;2.25;;;14.70;99.90;;;14.27;100.00;97796.66;4938311;28;20568;-65
2022/07/30 02:59:29;;;;;;;5.38;2.60;;;14.60;99.90;;;13.97;100.00;97799.13;4957278;28;20055;-65
2022/07/30 03:01:57;;;;;;;5.97;2.38;;;14.60;99.90;;;14.10;100.00;97800.19;4950887;28;20476;-65
2022/07/30 03:04:25;;;;;;;4.00;2.17;;;14.60;99.90;;;14.16;100.00;97805.09;4958859;28;20047;-65
2022/07/30 03:06:54;;;;;;;3.83;2.30;;;14.60;99.90;;;14.15;100.00;97800.78;4955475;28;20084;-65
2022/07/30 03:09:21;;;;;;;6.10;3.10;;;14.60;99.90;;;14.13;100.00;97796.56;4953159;28;20051;-65
2022/07/30 03:11:51;;;;;;;3.28;1.98;;;14.50;99.90;;;14.21;100.00;97795.22;4944639;28;20058;-65
2022/07/30 03:14:19;;;;;;;5.68;2.50;;;14.50;99.90;;;14.21;100.00;97794.41;4951685;28;20077;-65
2022/07/30 03:16:53;;;;;;;3.78;2.50;;;14.50;99.90;;;14.13;100.00;97800.00;4938762;28;20050;-65
2022/07/30 03:19:22;;;;;;;3.63;2.05;;;14.50;99.90;;;14.29;100.00;97796.56;4940434;29;20105;-65
2022/07/30 03:21:52;;;;;;;4.38;2.08;;;14.50;99.90;;;14.36;100.00;97787.47;4938327;28;20056;-64
2022/07/30 03:24:22;;;;;;;3.97;2.33;;;14.50;99.90;;;14.31;100.00;97784.28;4957144;28;20819;-64
2022/07/30 03:26:53;;;;;;;6.38;2.60;;;14.50;99.90;;;14.29;100.00;97792.19;4956523;28;20055;-64
2022/07/30 03:29:23;;;;;;;3.60;2.20;;;14.60;99.90;;;14.21;100.00;97795.22;4955596;28;20097;-64
2022/07/30 03:31:52;;;;;;;5.70;2.20;;;14.60;99.90;;;14.26;100.00;97792.38;4951595;28;20043;-64
2022/07/30 03:34:21;;;;;;;4.35;2.35;;;14.60;99.90;;;14.27;100.00;97795.81;4940761;28;20118;-64
2022/07/30 03:36:51;;;;;;;3.58;2.30;;;14.60;99.90;;;14.26;100.00;97794.97;4954777;28;20047;-64
2022/07/30 03:39:19;;;;;;;4.28;2.83;;;14.60;99.90;;;14.18;100.00;97799.75;4956440;28;20059;-64
2022/07/30 03:41:48;;;;;;;7.18;2.67;;;14.60;99.90;;;14.29;100.00;97801.81;4942772;28;20073;-64
2022/07/30 03:44:15;;;;;;;5.65;3.30;;;14.60;99.90;;;13.89;100.00;97820.44;4940214;29;20050;-64
2022/07/30 03:46:43;;;;;;;3.90;2.30;;;14.50;99.90;;;13.95;100.00;97817.47;4949527;28;20050;-64
2022/07/30 03:49:11;;;;;;;6.78;3.25;;;14.50;99.90;;;13.62;100.00;97824.47;4935978;28;20134;-64
2022/07/30 03:51:38;;;;;;;4.25;2.70;;;14.50;99.90;;;13.95;100.00;97822.69;4937622;28;20133;-64
2022/07/30 03:54:08;;;;;;;5.05;2.97;;;14.40;99.90;;;13.96;100.00;97826.16;4940997;28;20099;-64
2022/07/30 03:56:40;;;;;;;5.82;2.85;;;14.30;99.90;;;13.96;100.00;97815.72;4940411;28;20476;-64
2022/07/30 03:59:08;;;;;;;4.78;2.83;;;14.40;99.90;;;13.88;100.00;97823.09;4951132;28;20137;-65
2022/07/30 04:01:35;;;;;;;6.78;2.92;;;14.30;99.90;;;13.88;100.00;97823.94;4952444;28;20057;-64
2022/07/30 04:04:10;;;;;;;7.45;3.35;;;14.30;99.90;;;13.68;100.00;97847.59;4951743;28;20051;-64
2022/07/30 04:06:41;;;;;;;4.05;3.00;;;14.20;99.90;;;13.54;100.00;97841.31;4953446;28;21017;-64
2022/07/30 04:09:10;;;;;;;3.92;2.42;;;14.10;99.90;;;13.73;100.00;97843.00;4951999;28;20047;-64
2022/07/30 04:11:38;;;;;;;8.60;2.42;;;14.10;99.90;;;13.71;100.00;97830.03;4937963;28;20138;-66
2022/07/30 04:14:08;;;;;;;7.35;2.83;;;14.20;99.90;;;13.78;100.00;97841.00;4938791;28;20059;-64
2022/07/30 04:17:02;;;;;;;6.18;3.03;;;14.20;99.90;;;13.68;100.00;97840.63;4943283;28;20130;-64
2022/07/30 04:19:43;;;;;;;6.20;3.13;;;14.30;99.90;;;13.75;100.00;97844.63;4956011;28;20075;-64
2022/07/30 04:22:15;;;;;;;6.53;3.10;;;14.30;99.90;;;13.82;100.00;97834.69;4957574;28;20043;-64
2022/07/30 04:24:44;;;;;;;6.20;2.42;;;14.30;99.90;;;13.78;100.00;97841.84;4943844;29;20484;-64
2022/07/30 04:27:11;;;;;;;4.82;3.00;;;14.30;99.90;;;13.83;100.00;97846.00;4940755;28;20044;-64
2022/07/30 04:29:39;;;;;;;9.15;3.65;;;14.30;99.90;;;13.74;100.00;97857.72;4939424;29;20043;-64
2022/07/30 04:32:08;;;;;;;7.28;3.78;;;14.30;99.90;;;13.68;100.00;97871.06;4958568;28;20058;-65
2022/07/30 04:34:35;;;;;;;9.68;4.07;;;14.30;99.90;;;13.53;100.00;97890.97;4945729;28;20170;-64
2022/07/30 04:37:02;;;;;;;6.18;3.20;;;14.30;99.90;;;13.87;100.00;97890.13;4940663;28;20059;-65
2022/07/30 04:39:30;;;;;;;8.27;3.95;;;14.40;99.90;;;13.76;100.00;97900.25;4957485;28;20043;-64
2022/07/30 04:41:57;;;;;;;7.82;4.68;;;14.50;99.90;;;14.00;100.00;97900.75;4943489;28;20141;-64
2022/07/30 04:44:24;;;;;;;9.13;4.90;;;14.60;99.90;;;13.93;100.00;97910.66;4944438;28;20090;-64
2022/07/30 04:46:51;;;;;;;7.35;5.03;;;14.60;99.90;;;13.72;100.00;97914.34;4944351;28;20146;-64
2022/07/30 04:49:19;;;;;;;7.95;3.85;;;14.60;99.90;;;13.86;100.00;97918.88;4943139;29;20055;-65
2022/07/30 04:51:48;;;;;;;8.43;4.55;;;14.70;99.90;;;14.05;100.00;97909.22;4941541;28;20047;-64
2022/07/30 04:54:15;;;;;;;8.43;3.97;;;14.70;99.90;;;14.00;100.00;97912.06;4957733;28;20444;-65
2022/07/30 04:56:47;;;;;;;6.18;3.17;;;14.80;99.90;;;14.36;100.00;97911.06;4956300;28;20473;-65
2022/07/30 04:59:23;;;;;;;6.55;2.97;;;14.90;99.90;;;14.57;100.00;97898.69;4955600;28;20077;-64
2022/07/30 05:01:52;;;;;;;6.00;3.63;;;14.90;99.90;;;14.54;100.00;97898.81;4942317;28;20062;-64
2022/07/30 05:04:21;;;;;;;5.88;3.47;;;15.00;99.90;;;14.47;100.00;97901.81;4954374;28;20047;-64
2022/07/30 05:06:49;;;;;;;4.88;2.92;;;15.10;99.90;;;14.68;100.00;97897.25;4956028;28;20051;-64
2022/07/30 05:09:16;;;;;;;7.13;3.22;;;15.20;99.90;;;14.73;100.00;97892.59;4942033;29;20060;-64
2022/07/30 05:11:51;;;;;;;4.38;2.83;;;15.20;99.90;;;14.86;100.00;97885.78;4958578;28;20126;-64
2022/07/30 05:14:19;;;;;;;5.97;3.60;;;15.20;99.90;;;14.84;100.00;97885.03;4943704;29;20543;-64
2022/07/30 05:16:46;;;;;;;5.78;3.50;;;15.20;99.90;;;14.70;100.00;97895.38;4945466;28;20536;-65
2022/07/30 05:19:13;;;;;;;5.47;3.20;;;15.20;99.90;;;14.89;100.00;97890.84;4941100;29;20146;-64
2022/07/30 05:21:40;;;;;;;5.95;3.08;;;15.30;99.90;;;14.87;100.00;97894.47;4941111;29;20130;-64
2022/07/30 05:24:07;;;;;;;5.63;3.38;;;15.30;99.90;;;14.86;100.00;97898.84;4945749;29;20146;-64
2022/07/30 05:26:34;;;;;;;6.53;3.72;;;15.40;99.90;;;15.12;100.00;97889.59;4943873;28;20078;-64
2022/07/30 05:29:01;;;;;;;5.88;3.38;;;15.40;99.90;;;15.10;100.00;97885.34;4941710;28;20044;-64
2022/07/30 05:31:33;;;;;;;5.90;3.45;;;15.50;99.90;;;15.31;100.00;97876.31;4945761;28;20087;-64
2022/07/30 05:34:00;;;;;;;7.10;3.22;;;15.60;99.90;;;15.34;100.00;97875.28;4946069;28;20047;-64
2022/07/30 05:36:30;;;;;;;4.00;2.78;;;15.80;99.90;;;15.59;100.00;97870.31;4939987;28;20573;-64
2022/07/30 05:38:57;;;;;;;6.18;3.38;;;16.00;99.90;;;15.75;100.00;97870.28;4960702;28;20055;-64
2022/07/30 05:41:24;;;;;;;6.95;3.78;;;16.10;99.90;;;15.80;100.00;97870.84;4945908;28;20334;-65
2022/07/30 05:43:59;;;;;;;4.72;3.08;;;16.20;99.90;;;16.03;100.00;97864.28;4941840;28;20055;-64
2022/07/30 05:46:27;;;;;;;5.55;2.90;;;16.40;99.90;;;16.33;100.00;97862.47;4943631;28;20110;-66
2022/07/30 05:48:54;;;;;;;8.52;4.13;;;16.60;99.90;;;16.16;100.00;97866.97;4940284;28;20122;-65
2022/07/30 05:51:21;;;;;;;6.70;4.40;;;16.80;99.90;;;16.15;100.00;97872.28;4943286;28;20059;-65
2022/07/30 05:53:48;;;;;;;7.10;3.83;;;17.00;99.90;;;16.37;100.00;97874.47;4942766;28;20123;-65
2022/07/30 05:56:16;;;;;;;6.22;3.80;;;17.10;99.90;;;16.56;100.00;97875.03;4941515;29;20086;-65
2022/07/30 05:58:43;;;;;;;6.90;4.07;;;17.30;99.90;;;16.64;100.00;97883.22;4941445;28;20051;-65
2022/07/30 06:01:17;;;;;;;6.20;3.58;;;17.30;99.90;;;16.97;100.00;97889.97;4954728;28;20739;-65
2022/07/30 06:03:44;;;;;;;6.88;3.58;;;17.60;99.90;;;17.13;100.00;97877.53;4957045;28;20055;-65
2022/07/30 06:06:11;;;;;;;4.85;2.92;;;17.90;99.90;;;17.50;100.00;97872.50;4941871;28;20050;-65
2022/07/30 06:08:38;;;;;;;12.43;3.65;;;18.10;99.90;;;17.73;100.00;97870.16;4942189;28;20053;-65
2022/07/30 06:11:07;;;;;;;7.00;4.03;;;18.30;99.90;;;17.78;100.00;97853.13;4940159;29;20055;-65
2022/07/30 06:13:36;;;;;;;6.63;3.15;;;18.50;99.90;;;17.95;100.00;97851.19;4939008;28;20171;-65
2022/07/30 06:16:04;;;;;;;4.63;2.90;;;18.60;99.90;;;18.06;100.00;97855.69;4953583;28;20079;-65
2022/07/30 06:18:31;;;;;;;8.02;3.67;;;18.80;99.90;;;17.94;100.00;97857.38;4942256;28;20095;-65
2022/07/30 06:20:58;;;;;;;7.57;3.47;;;18.80;99.90;;;17.89;100.00;97859.50;4941123;28;20057;-65
2022/07/30 06:23:25;;;;;;;10.23;3.88;;;18.90;99.90;;;17.98;100.00;97864.13;4941283;28;20586;-65
2022/07/30 06:25:52;;;;;;;7.45;3.70;;;18.90;99.90;;;18.04;100.00;97868.09;4939237;28;20043;-65
2022/07/30 06:28:19;;;;;;;12.60;4.40;;;19.00;99.90;;;18.10;100.00;97857.19;4941411;28;20413;-65
2022/07/30 06:31:05;;;;;;;7.80;3.85;;;19.10;99.90;;;18.08;100.00;97856.44;4939480;29;20420;-65
2022/07/30 06:33:32;;;;;;;7.05;3.42;;;19.20;99.90;;;18.30;100.00;97859.25;4939386;28;20483;-64
2022/07/30 06:35:59;;;;;;;6.95;3.80;;;19.20;99.90;;;18.44;100.00;97853.03;4939818;28;20401;-65
2022/07/30 06:38:27;;;;;;;7.10;4.15;;;19.30;99.90;;;18.53;100.00;97849.75;4938536;28;20062;-65
2022/07/30 06:40:54;;;;;;;7.97;4.07;;;19.40;99.90;;;18.83;100.00;97848.56;4938370;29;20055;-65
2022/07/30 06:43:27;;;;;;;6.88;4.00;;;19.50;99.90;;;18.79;100.00;97844.47;4940375;28;20058;-65
2022/07/30 06:45:54;;;;;;;9.23;4.30;;;19.60;99.90;;;18.83;100.00;97847.72;4936409;28;20618;-65
2022/07/30 06:48:22;;;;;;;8.05;4.13;;;19.70;99.90;;;18.82;100.00;97844.25;4940803;28;20396;-65
2022/07/30 06:50:49;;;;;;;6.10;3.70;;;19.90;99.90;;;19.17;100.00;97843.50;4941930;29;20086;-65
2022/07/30 06:53:16;;;;;;;9.10;5.10;;;19.90;99.90;;;19.37;100.00;97845.50;4943365;28;20151;-66
2022/07/30 06:55:43;;;;;;;8.27;4.40;;;20.00;99.90;;;19.20;100.00;97851.16;4942597;28;20452;-66
2022/07/30 06:58:10;;;;;;;6.13;3.97;;;20.20;99.90;;;19.71;100.00;97835.09;4953364;28;20082;-66
2022/07/30 07:00:37;;;;;;;8.80;4.50;;;20.30;99.90;;;19.54;100.00;97843.38;4941152;28;20062;-65
2022/07/30 07:03:04;;;;;;;7.88;4.60;;;20.50;99.90;;;19.65;100.00;97830.25;4940117;28;20082;-65
2022/07/30 07:05:37;;;;;;;10.30;4.90;;;20.50;99.90;;;19.57;100.00;97836.09;4940859;28;20051;-65
2022/07/30 07:08:07;;;;;;;14.05;5.15;;;20.60;99.90;;;19.69;100.00;97837.00;4939265;29;20044;-65
2022/07/30 07:10:34;;;;;;;9.10;5.55;;;20.70;99.90;;;19.89;100.00;97832.88;4938839;29;20138;-66
2022/07/30 07:13:01;;;;;;;6.07;3.92;;;20.90;99.90;;;20.18;100.00;97833.22;4943393;28;20050;-65
2022/07/30 07:15:28;;;;;;;10.48;5.72;;;21.00;99.90;;;20.19;100.00;97832.28;4937713;28;20135;-65
2022/07/30 07:18:04;;;;;;;18.17;6.72;;;21.10;99.90;;;20.04;100.00;97834.28;4938680;29;20089;-66
2022/07/30 07:20:33;;;;;;;11.75;5.80;;;21.20;99.90;;;20.21;100.00;97832.19;4937822;29;20150;-65
2022/07/30 07:23:00;;;;;;;9.73;4.43;;;21.30;99.90;;;20.42;100.00;97827.00;4936191;28;20131;-65
2022/07/30 07:25:35;;;;;;;13.68;6.15;;;21.40;99.90;;;20.62;100.00;97836.84;4938044;29;20412;-65
2022/07/30 07:28:03;;;;;;;8.00;5.38;;;21.50;99.90;;;20.74;100.00;97832.41;4939028;28;20539;-65
2022/07/30 07:30:40;;;;;;;12.68;6.45;;;21.60;99.90;;;20.74;100.00;97836.84;4945145;28;20309;-65
2022/07/30 07:33:08;;;;;;;15.63;6.22;;;21.70;99.90;;;20.82;100.00;97832.63;4941574;28;20549;-66
2022/07/30 07:35:35;;;;;;;13.88;5.05;;;21.80;99.90;;;21.22;100.00;97825.91;4956222;28;20863;-65
2022/07/30 07:38:18;;;;;;;15.07;6.22;;;21.90;99.90;;;21.19;100.00;97823.50;4937135;29;20432;-66
2022/07/30 07:40:46;;;;;;;14.73;5.82;;;22.10;99.90;;;21.17;100.00;97820.16;4939749;29;20047;-64
2022/07/30 07:43:13;;;;;;;7.55;4.80;;;22.20;99.90;;;21.34;100.00;97816.97;4939096;28;20060;-64
2022/07/30 07:45:44;;;;;;;11.82;5.20;;;22.30;99.90;;;21.51;100.00;97807.69;4938001;28;20057;-64
2022/07/30 07:48:12;;;;;;;11.93;4.80;;;22.40;99.90;;;21.67;100.00;97807.25;4938524;28;20059;-64
2022/07/30 07:50:39;;;;;;;9.05;4.13;;;22.50;99.90;;;21.59;100.00;97797.28;4941298;29;20055;-64
2022/07/30 07:53:06;;;;;;;7.03;4.15;;;22.50;99.90;;;21.64;100.00;97803.03;4938979;28;20475;-64
2022/07/30 07:55:33;;;;;;;7.07;3.95;;;22.40;99.90;;;21.95;100.00;97802.25;4940778;28;20055;-65
2022/07/30 07:58:01;;;;;;;11.18;3.53;;;22.50;99.90;;;22.18;100.00;97787.88;4938193;29;20062;-64
2022/07/30 08:00:28;;;;;;;8.93;3.13;;;22.80;99.90;;;22.02;100.00;97795.47;4940315;28;20086;-64
2022/07/30 08:02:55;;;;;;;7.68;3.03;;;22.90;99.90;;;21.91;100.00;97799.84;4941054;28;20497;-64
2022/07/30 08:05:22;;;;;;;7.80;2.90;;;22.90;99.90;;;22.21;100.00;97794.69;4955963;28;20485;-64
2022/07/30 08:07:51;;;;;;;14.45;3.63;;;23.00;99.90;;;21.77;100.00;97799.38;4940098;29;20061;-64
2022/07/30 08:10:17;;;;;;;7.28;2.85;;;23.00;99.90;;;22.06;100.00;97787.13;4938494;28;20051;-64
2022/07/30 08:12:44;;;;;;;6.95;2.60;;;23.00;99.90;;;21.68;100.00;97793.88;4941709;28;20086;-64
2022/07/30 08:15:11;;;;;;;6.40;2.50;;;22.90;99.90;;;22.07;100.00;97796.72;4941542;29;20347;-64
2022/07/30 08:17:43;;;;;;;5.95;2.60;;;22.90;99.90;;;22.16;100.00;97794.28;4939801;28;20087;-64
2022/07/30 08:20:12;;;;;;;9.38;3.47;;;23.00;99.90;;;21.86;100.00;97790.66;4939574;29;20409;-64
2022/07/30 08:22:40;;;;;;;7.10;2.55;;;23.00;99.90;;;22.06;100.00;97786.31;4956984;28;20058;-64
2022/07/30 08:25:08;;;;;;;8.90;3.03;;;23.00;99.90;;;22.17;100.00;97782.72;4936724;29;20139;-64
2022/07/30 08:27:35;;;;;;;7.00;2.83;;;23.00;99.90;;;22.15;100.00;97782.88;4953823;28;20476;-65
2022/07/30 08:30:07;;;;;;;7.28;2.13;;;23.10;99.90;;;22.39;100.00;97784.38;4936812;28;20043;-64
2022/07/30 08:32:35;;;;;;;11.43;2.40;;;23.20;99.90;;;22.14;100.00;97787.28;4938471;28;20058;-65
2022/07/30 08:35:04;;;;;;;6.00;1.50;;;23.30;99.90;;;22.53;100.00;97779.56;4934982;28;20131;-65
2022/07/30 08:37:33;;;;;;;10.02;1.90;;;23.40;99.90;;;22.97;100.00;97781.84;4936607;29;20059;-64
2022/07/30 08:40:00;;;;;;;6.88;2.38;;;23.70;99.90;;;22.55;100.00;97784.69;4941415;28;20074;-65
2022/07/30 08:42:27;;;;;;;7.55;1.70;;;23.60;99.90;;;22.72;100.00;97777.91;4945370;29;20126;-65
2022/07/30 08:44:55;;;;;;;30.00;4.72;;;23.70;99.90;;;22.91;100.00;97785.84;4937666;28;20221;-65
2022/07/30 08:47:30;;;;;;;6.30;1.98;;;23.90;99.90;;;23.27;100.00;97774.78;4943171;28;20146;-65
2022/07/30 08:50:03;;;;;;;8.93;1.70;;;24.10;99.90;;;22.85;100.00;97777.63;4955111;28;20079;-65
2022/07/30 08:52:33;;;;;;;3.92;1.75;;;24.20;99.30;;;23.07;100.00;97777.41;4954912;28;20512;-65
2022/07/30 08:55:00;;;;;;;4.43;1.90;;;24.20;99.20;;;23.18;100.00;97784.38;4939156;29;20048;-65
2022/07/30 08:57:31;;;;;;;8.27;2.58;;;24.50;99.00;;;23.49;100.00;97792.16;4945430;29;20052;-65
2022/07/30 08:59:59;;;;;;;9.82;2.00;;;24.90;98.00;;;23.56;100.00;97782.66;4938124;28;20130;-65
2022/07/30 09:02:30;;;;;;;5.97;1.65;;;25.00;97.10;;;24.29;100.00;97779.41;4942844;28;20109;-65
2022/07/30 09:04:57;;;;;;;5.65;1.33;;;25.10;97.00;;;24.46;100.00;97770.66;4945543;28;20146;-65
2022/07/30 09:07:25;;;;;;;11.13;2.30;;;25.30;96.90;;;24.39;100.00;97777.53;4945158;28;20135;-65
2022/07/30 09:09:52;;;;;;;7.38;2.00;;;25.70;96.50;;;24.38;100.00;97774.06;4939680;29;20086;-65
2022/07/30 09:12:39;;;;;;;5.35;1.63;;;25.90;96.10;;;24.65;100.00;97785.66;4941351;28;20138;-65
2022/07/30 09:15:15;;;;;;;10.10;2.28;;;25.90;95.80;;;23.93;100.00;97795.19;4936703;28;20050;-65
2022/07/30 09:17:54;;;;;;;6.15;1.90;;;26.00;94.90;;;24.99;100.00;97782.38;4940421;28;20051;-65
2022/07/30 09:20:25;;;;;;;4.75;1.70;;;26.00;95.30;;;25.17;100.00;97785.84;4951267;28;20166;-65
2022/07/30 09:22:59;;;;;;;5.60;1.90;;;26.10;95.40;;;25.19;100.00;97780.44;4952250;28;20224;-65
2022/07/30 09:25:44;;;;;;;4.38;1.40;;;26.30;94.60;;;25.43;100.00;97769.16;4951920;28;20181;-65
2022/07/30 09:28:13;;;;;;;4.82;1.10;;;26.60;94.10;;;25.74;100.00;97771.38;4969072;28;20055;-65
2022/07/30 09:30:44;;;;;;;5.00;1.63;;;26.70;93.70;;;25.04;100.00;97778.28;4952910;28;20038;-65
2022/07/30 09:33:11;;;;;;;3.83;1.52;;;26.80;93.10;;;25.23;100.00;97771.19;4954805;28;20174;-65
2022/07/30 09:35:41;;;;;;;5.72;1.42;;;26.70;92.90;;;27.10;100.00;97754.47;4949165;28;20061;-66
2022/07/30 09:38:10;;;;;;;4.45;1.23;;;26.90;93.70;;;25.16;100.00;97776.22;4950985;28;20082;-66
2022/07/30 09:40:37;;;;;;;4.60;1.30;;;26.50;92.60;;;24.08;100.00;97780.47;4950780;28;20046;-65
2022/07/30 09:43:10;;;;;;;;;;;26.00;91.90;;;24.74;100.00;97786.59;4950611;28;20589;-65
2022/07/30 09:45:54;;;;;;;3.78;1.40;;;25.90;92.20;;;25.31;100.00;97778.38;4955036;28;19930;-65
2022/07/30 09:48:27;;;;;;;5.95;1.27;;;26.20;92.20;;;26.02;100.00;97764.94;4954476;28;20138;-64
2022/07/30 09:50:55;;;;;;;5.05;1.05;;;26.50;92.40;;;25.98;100.00;97779.53;4952942;28;20047;-64
2022/07/30 09:53:24;;;;;;;5.03;1.13;;;26.80;91.80;;;25.97;100.00;97759.25;4954626;28;20620;-64
2022/07/30 09:55:51;;;;;;;4.18;0.90;;;26.90;91.30;;;27.01;100.00;97774.09;4953934;28;20046;-65
2022/07/30 09:58:18;;;;;;;3.80;1.33;;;27.00;91.20;;;27.34;100.00;97768.81;4955611;28;20434;-65
2022/07/30 10:00:57;;;;;;;3.55;1.08;;;27.20;90.80;;;27.98;100.00;97760.09;4956359;28;20050;-65
2022/07/30 10:03:26;;;;;;;5.00;0.98;;;27.60;90.50;;;28.45;100.00;97777.94;4954727;28;20113;-66
2022/07/30 10:06:01;;;;;;;3.88;1.10;;;28.30;90.20;;;27.99;100.00;97767.94;4954689;28;20111;-65
2022/07/30 10:08:42;;;;;;;6.60;0.93;;;28.60;88.30;;;28.50;100.00;97768.41;4952993;28;20105;-66
2022/07/30 10:11:21;;;;;;;4.80;0.80;;;28.70;88.70;;;29.23;99.98;97762.84;4951882;28;20467;-66
2022/07/30 10:13:55;;;;;;;2.72;0.80;;;28.90;87.40;;;28.15;100.00;97756.38;4966882;28;20051;-65
2022/07/30 10:16:29;;;;;;;3.90;1.10;;;28.80;86.20;;;26.67;100.00;97767.03;4951147;28;20078;-66
2022/07/30 10:18:58;;;;;;;5.18;0.95;;;28.40;85.60;;;28.28;100.00;97755.81;4953472;28;20129;-65
2022/07/30 10:21:27;;;;;;;6.00;1.23;;;28.40;86.30;;;29.44;100.00;97746.09;4951858;28;20157;-65
2022/07/30 10:23:58;;;;;;;4.60;0.70;;;28.80;86.40;;;28.34;95.90;97763.13;4954637;28;20062;-65